Latest Weather Observations for Amberley

IDQ60801

The Bureau's Brisbane Office is moving locations in November 2018. In the lead up to and during the move, some weather observations or other data on our website may be delayed or temporarily unavailable. Thank you for your patience during this transition.

Issued at 2:02 pm EST Thursday 15 November 2018 (issued every 10 minutes, with the page automatically refreshed every 10 minutes)

About weather observations | Map of weather stations | Latest weather observations for QLD | Other Formats
Station Details ID: 040004 Name: AMBERLEY AMO Lat: -27.63 Lon: 152.71 Height: 24.2 m
Data from the previous 72 hours. | See also: Recent months at Amberley
Date/Time
EST
Temp
°C
App
Temp
°C
Dew
Point
°C
Rel
Hum
%
Delta-T
°C
Wind Press
QNH
hPa
Press
MSL
hPa
Rain since
9am
mm
Dir  Spd
km/h
Gust
km/h
Spd
kts
Gust
kts
15/01:30pm 30.8 30.5 14.4 36 10.0 NNW 9 11 5 6 1014.9 1014.8 0.0
15/01:00pm 30.4 30.4 14.1 37 9.8 NE 7 13 4 7 1015.3 1015.2 0.0
15/12:30pm 30.1 29.5 14.6 39 9.4 W 11 17 6 9 1015.9 1015.8 0.0
15/12:00pm 29.6 29.0 15.7 43 8.6 ENE 13 20 7 11 1016.3 1016.2 0.0
15/11:30am 29.5 29.7 16.7 46 8.0 N 11 19 6 10 1016.9 1016.8 0.0
15/11:00am 29.3 29.5 16.8 47 7.8 N 11 19 6 10 1017.4 1017.3 0.0
15/10:30am 28.2 28.8 16.8 50 7.1 ENE 9 15 5 8 1017.8 1017.7 0.0
15/10:00am 28.1 29.2 17.0 51 6.9 E 7 15 4 8 1018.2 1018.1 0.0
15/09:30am 27.0 27.6 16.9 54 6.3 WNW 9 17 5 9 1018.5 1018.4 0.0
15/09:00am 25.3 26.4 16.7 59 5.3 W 6 13 3 7 1018.6 1018.5 0.0
15/08:30am 25.5 27.0 17.7 62 4.9 SE 6 9 3 5 1018.7 1018.6 0.0
15/08:00am 23.9 25.2 17.2 66 4.1 NW 6 9 3 5 1018.9 1018.8 0.0
15/07:30am 22.4 24.4 17.8 75 2.9 WNW 4 9 2 5 1018.8 1018.7 0.0
15/07:00am 21.3 23.2 17.7 80 2.2 SSE 4 9 2 5 1018.4 1018.3 0.0
15/06:30am 20.0 21.3 17.2 84 1.7 S 6 7 3 4 1018.2 1018.1 0.0
15/06:00am 18.5 21.0 17.3 93 0.7 CALM 0 0 0 0 1017.7 1017.6 0.0
15/05:30am 17.3 19.5 16.5 95 0.5 CALM 0 0 0 0 1017.6 1017.5 0.0
15/05:00am 16.3 18.0 15.3 94 0.6 CALM 0 0 0 0 1017.3 1017.2 0.0
15/04:30am 16.2 18.0 15.4 95 0.5 CALM 0 0 0 0 1016.7 1016.6 0.0
15/04:00am 15.7 17.2 14.7 94 0.6 CALM 0 0 0 0 1016.5 1016.4 0.0
15/03:30am 16.3 18.0 15.3 94 0.6 CALM 0 0 0 0 1016.1 1016.0 0.0
15/03:00am 16.7 18.5 15.6 93 0.6 CALM 0 0 0 0 1016.1 1016.0 0.0
15/02:30am 17.2 19.2 16.1 93 0.7 CALM 0 0 0 0 1016.2 1016.1 0.0
15/02:00am 16.9 18.7 15.4 91 0.9 CALM 0 0 0 0 1016.3 1016.2 0.0
15/01:30am 17.8 19.9 16.3 91 0.9 CALM 0 0 0 0 1016.4 1016.3 0.0
15/01:00am 18.2 20.4 16.4 89 1.1 CALM 0 0 0 0 1016.6 1016.5 0.0
15/12:30am 19.8 21.1 17.2 85 1.6 ENE 6 7 3 4 1016.9 1016.8 0.0
15/12:00am 20.2 22.1 16.8 81 2.1 ENE 2 6 1 3 1017.1 1017.0 0.0
 
Date/Time
EST
Temp
°C
App
Temp
°C
Dew
Point
°C
Rel
Hum
%
Delta-T
°C
Wind Press
QNH
hPa
Press
MSL
hPa
Rain since
9am
mm
Dir  Spd
km/h
Gust
km/h
Spd
kts
Gust
kts
14/11:30pm 21.1 21.7 16.9 77 2.6 ENE 9 11 5 6 1017.3 1017.2 0.0
14/11:00pm 21.7 22.1 17.3 76 2.7 E 11 13 6 7 1017.6 1017.5 0.0
14/10:30pm 21.8 21.8 17.2 75 2.8 ENE 13 17 7 9 1017.7 1017.6 0.0
14/10:00pm 22.1 21.7 17.2 74 3.0 ENE 15 17 8 9 1017.8 1017.7 0.0
14/09:30pm 22.3 22.7 17.2 73 3.1 ENE 11 15 6 8 1018.0 1017.9 0.0
14/09:00pm 22.3 21.9 17.2 73 3.1 ENE 15 20 8 11 1017.7 1017.6 0.0
14/08:30pm 22.5 21.2 17.2 72 3.3 ENE 20 30 11 16 1017.2 1017.1 0.0
14/08:00pm 22.8 21.6 17.5 72 3.3 NE 20 30 11 16 1016.9 1016.8 0.0
14/07:30pm 23.1 21.6 17.6 71 3.4 ENE 22 30 12 16 1016.7 1016.6 0.0
14/07:00pm 23.5 21.9 17.5 69 3.7 ENE 22 33 12 18 1016.5 1016.4 0.0
14/06:30pm 24.1 22.2 16.6 63 4.6 ENE 22 30 12 16 1016.4 1016.3 0.0
14/06:00pm 24.8 22.2 16.8 61 4.9 ENE 26 33 14 18 1016.0 1015.9 0.0
14/05:30pm 25.8 23.4 16.4 56 5.8 ENE 24 35 13 19 1015.7 1015.6 0.0
14/05:00pm 26.8 24.2 15.8 51 6.7 ENE 24 30 13 16 1015.5 1015.4 0.0
14/04:30pm 26.9 24.2 15.6 50 6.9 ENE 24 30 13 16 1015.3 1015.2 0.0
14/04:00pm 27.7 25.0 15.7 48 7.4 NE 24 30 13 16 1015.2 1015.1 0.0
14/03:30pm 28.4 25.5 16.0 47 7.7 NE 26 35 14 19 1015.1 1015.0 0.0
14/03:00pm 29.2 27.5 14.6 41 8.8 ENE 17 26 9 14 1015.1 1015.0 0.0
14/02:30pm 28.8 26.7 13.5 39 9.1 ENE 17 26 9 14 1015.1 1015.0 0.0
14/02:00pm 28.7 27.8 13.8 40 8.9 ENE 11 20 6 11 1015.3 1015.2 0.0
14/01:30pm 29.0 27.7 13.6 38 9.2 NE 13 20 7 11 1015.6 1015.5 0.0
14/01:00pm 28.5 27.3 12.8 38 9.2 NNE 11 22 6 12 1015.9 1015.8 0.0
14/12:30pm 29.0 28.8 13.6 38 9.2 E 7 19 4 10 1016.4 1016.3 0.0
14/12:00pm 28.3 28.3 14.2 42 8.5 NNE 7 15 4 8 1016.8 1016.7 0.0
14/11:30am 28.0 26.6 13.5 41 8.6 E 13 17 7 9 1017.0 1016.9 0.0
14/11:00am 27.9 26.9 14.5 44 8.1 ENE 13 22 7 12 1017.3 1017.2 0.0
14/10:30am 27.8 26.4 14.4 43 8.1 NNE 15 22 8 12 1017.8 1017.7 0.0
14/10:00am 26.5 26.2 15.5 50 6.7 ENE 11 22 6 12 1018.2 1018.1 0.0
14/09:30am 25.0 24.5 15.9 57 5.5 NE 13 19 7 10 1018.4 1018.3 0.0
14/09:00am 25.2 25.5 16.1 57 5.6 E 9 15 5 8 1018.5 1018.4 0.0
14/08:30am 24.1 24.4 15.1 57 5.4 NE 7 13 4 7 1018.5 1018.4 0.0
14/08:00am 22.9 23.1 14.2 58 5.1 ESE 6 9 3 5 1018.3 1018.2 0.0
14/07:30am 21.5 21.5 14.2 63 4.3 SSW 7 11 4 6 1018.4 1018.3 0.0
14/07:00am 19.7 19.0 13.2 66 3.7 SW 9 11 5 6 1018.3 1018.2 0.0
14/06:30am 18.0 17.8 13.7 76 2.4 SSW 7 11 4 6 1018.0 1017.9 0.0
14/06:00am 15.8 15.1 13.3 85 1.4 SSW 9 11 5 6 1017.7 1017.6 0.0
14/05:30am 14.6 13.9 13.3 92 0.7 WSW 9 11 5 6 1017.7 1017.6 0.0
14/05:00am 13.2 13.9 12.1 93 0.6 CALM 0 0 0 0 1017.3 1017.2 0.0
14/04:30am 13.2 13.8 11.9 92 0.7 CALM 0 0 0 0 1016.9 1016.8 0.0
14/04:00am 13.4 13.3 12.1 92 0.7 WNW 4 7 2 4 1016.7 1016.6 0.0
14/03:30am 13.7 14.5 12.4 92 0.7 CALM 0 0 0 0 1016.3 1016.2 0.0
14/03:00am 14.0 14.2 12.9 93 0.6 NW 4 7 2 4 1016.4 1016.3 0.0
14/02:30am 13.3 13.9 11.9 91 0.8 CALM 0 0 0 0 1016.6 1016.5 0.0
14/02:00am 13.2 12.4 11.8 91 0.7 NW 7 9 4 5 1016.7 1016.6 0.0
14/01:30am 14.2 14.7 12.9 92 0.7 NW 2 6 1 3 1016.9 1016.8 0.0
14/01:00am 13.1 13.5 11.3 89 0.9 CALM 0 9 0 5 1017.2 1017.1 0.0
14/12:30am 15.3 16.2 13.0 86 1.3 CALM 0 0 0 0 1017.6 1017.5 0.0
14/12:00am 15.8 16.9 13.5 86 1.3 CALM 0 0 0 0 1017.9 1017.8 0.0
 
Date/Time
EST
Temp
°C
App
Temp
°C
Dew
Point
°C
Rel
Hum
%
Delta-T
°C
Wind Press
QNH
hPa
Press
MSL
hPa
Rain since
9am
mm
Dir  Spd
km/h
Gust
km/h
Spd
kts
Gust
kts
13/11:30pm 16.0 17.2 13.7 86 1.3 CALM 0 0 0 0 1018.2 1018.1 0.0
13/11:00pm 16.9 17.9 13.2 79 2.1 CALM 0 0 0 0 1018.4 1018.3 0.0
13/10:30pm 17.2 18.0 12.5 74 2.6 CALM 0 2 0 1 1018.7 1018.6 0.0
13/10:00pm 18.0 17.2 12.9 72 2.9 E 9 9 5 5 1018.8 1018.7 0.0
13/09:30pm 19.1 18.6 12.8 67 3.5 E 7 9 4 5 1018.8 1018.7 0.0
13/09:00pm 20.9 20.3 13.6 63 4.2 ENE 9 13 5 7 1019.0 1018.9 0.0
13/08:30pm 21.5 20.6 13.7 61 4.5 E 11 17 6 9 1018.7 1018.6 0.0
13/08:00pm 21.7 19.6 13.6 60 4.7 E 17 28 9 15 1018.4 1018.3 0.0
13/07:30pm 22.1 19.6 13.5 58 5.0 ENE 19 24 10 13 1018.0 1017.9 0.0
13/07:00pm 22.3 19.3 13.6 58 5.0 ENE 22 30 12 16 1017.6 1017.5 0.0
13/06:30pm 22.5 19.9 13.8 58 5.1 ENE 20 30 11 16 1017.4 1017.3 0.0
13/06:00pm 23.1 19.7 13.6 55 5.5 ENE 24 32 13 17 1017.0 1016.9 0.0
13/05:30pm 24.0 20.1 13.2 50 6.3 ENE 26 37 14 20 1016.5 1016.4 0.0
13/05:00pm 24.6 20.7 13.2 49 6.6 ENE 26 37 14 20 1016.4 1016.3 0.0
13/04:30pm 25.9 21.4 12.7 44 7.7 E 28 35 15 19 1016.2 1016.1 0.0
13/04:00pm 25.8 20.6 11.6 41 8.1 ENE 30 37 16 20 1016.0 1015.9 0.0
13/03:30pm 26.0 21.9 12.8 44 7.7 E 26 37 14 20 1015.9 1015.8 0.0
13/03:00pm 26.7 22.1 12.4 41 8.3 E 28 37 15 20 1015.7 1015.6 0.0
13/02:30pm 27.2 22.6 13.5 42 8.1 ENE 30 37 16 20 1015.9 1015.8 0.0
13/02:00pm 26.9 22.9 12.9 42 8.2 E 26 35 14 19 1016.1 1016.0 0.0
13/01:30pm 27.7 23.9 13.6 42 8.4 ENE 26 37 14 20 1016.3 1016.2 0.0
13/01:00pm 27.8 24.8 13.7 42 8.4 E 22 33 12 18 1016.5 1016.4 0.0
13/12:30pm 26.6 23.4 13.0 43 8.0 E 22 33 12 18 1016.8 1016.7 0.0
13/12:00pm 27.5 24.9 13.8 43 8.1 ENE 20 30 11 16 1017.2 1017.1 0.0
13/11:30am 27.4 24.1 14.1 44 7.9 ENE 24 35 13 19 1017.7 1017.6 0.0
13/11:00am 26.7 24.1 13.8 45 7.6 E 20 32 11 17 1018.0 1017.9 0.0
13/10:30am 27.0 24.7 15.7 50 6.9 E 22 30 12 16 1018.6 1018.5 0.0
13/10:00am 26.1 24.4 14.6 49 6.9 E 17 26 9 14 1019.1 1019.0 0.0
13/09:30am 25.2 23.3 14.3 50 6.5 E 17 26 9 14 1019.5 1019.4 0.0
13/09:00am 23.8 22.0 13.4 52 6.0 E 15 28 8 15 1019.5 1019.4 0.0
13/08:30am 24.0 22.0 13.8 53 6.0 SE 17 30 9 16 1019.5 1019.4 0.0
13/08:00am 22.7 21.8 13.7 56 5.2 SE 11 17 6 9 1019.7 1019.6 0.0
13/07:30am 21.1 21.3 14.7 67 3.8 SE 7 11 4 6 1019.8 1019.7 0.0
13/07:00am 19.4 19.3 13.3 68 3.5 SE 6 9 3 5 1019.9 1019.8 0.0
13/06:30am 17.4 18.0 13.1 76 2.4 SSW 2 7 1 4 1019.5 1019.4 0.0
13/06:00am 15.2 16.2 13.2 88 1.1 CALM 0 0 0 0 1019.3 1019.2 0.0
13/05:30am 12.1 11.1 11.0 93 0.6 S 7 9 4 5 1019.3 1019.2 0.0
13/05:00am 11.4 10.4 10.3 93 0.6 S 6 9 3 5 1018.9 1018.8 0.0
13/04:30am 12.3 12.4 11.4 94 0.5 S 2 6 1 3 1018.6 1018.5 0.0
13/04:00am 12.3 12.5 10.7 90 0.8 CALM 0 0 0 0 1018.5 1018.4 0.0
13/03:30am 11.8 11.9 10.2 90 0.8 CALM 0 0 0 0 1018.5 1018.4 0.0
13/03:00am 13.0 13.4 11.1 88 1.0 CALM 0 0 0 0 1018.4 1018.3 0.0
13/02:30am 12.6 11.4 10.3 86 1.2 S 7 9 4 5 1018.5 1018.4 0.0
13/02:00am 13.2 13.6 11.3 88 1.0 CALM 0 0 0 0 1018.5 1018.4 0.0
13/01:30am 13.3 13.7 11.4 88 1.0 CALM 0 0 0 0 1018.8 1018.7 0.0
13/01:00am 13.8 14.3 11.7 87 1.1 CALM 0 0 0 0 1019.0 1018.9 0.0
13/12:30am 13.9 14.3 11.4 85 1.3 CALM 0 0 0 0 1019.4 1019.3 0.0
13/12:00am 15.1 14.6 12.1 82 1.6 S 6 9 3 5 1019.7 1019.6 0.0
 
Date/Time
EST
Temp
°C
App
Temp
°C
Dew
Point
°C
Rel
Hum
%
Delta-T
°C
Wind Press
QNH
hPa
Press
MSL
hPa
Rain since
9am
mm
Dir  Spd
km/h
Gust
km/h
Spd
kts
Gust
kts
12/11:30pm 14.1 14.4 10.9 81 1.7 CALM 0 0 0 0 1020.2 1020.1 0.0
12/11:00pm 16.1 16.7 11.9 76 2.3 CALM 0 0 0 0 1020.4 1020.3 0.0
12/10:30pm 17.2 16.5 12.1 72 2.8 E 7 9 4 5 1020.5 1020.4 0.0
12/10:00pm 18.2 17.2 12.2 68 3.3 E 9 11 5 6 1020.6 1020.5 0.0
12/09:30pm 18.5 18.8 12.3 67 3.4 E 2 7 1 4 1020.3 1020.2 0.0
12/09:00pm 19.0 18.4 12.3 65 3.7 E 7 11 4 6 1020.4 1020.3 0.0
12/08:30pm 19.8 18.1 12.6 63 4.1 E 13 19 7 10 1020.0 1019.9 0.0
12/08:00pm 20.6 19.1 13.1 62 4.3 E 13 17 7 9 1019.4 1019.3 0.0
12/07:30pm 21.5 19.3 13.4 60 4.7 ENE 17 19 9 10 1019.1 1019.0 0.0
12/07:00pm 22.1 19.8 12.9 56 5.3 ENE 17 24 9 13 1019.0 1018.9 0.0
12/06:30pm 22.5 19.8 13.0 55 5.5 E 19 26 10 14 1018.7 1018.6 0.0
12/06:00pm 23.3 19.7 12.9 52 6.0 E 24 32 13 17 1018.3 1018.2 0.0
12/05:30pm 24.3 20.3 12.9 49 6.6 ENE 26 33 14 18 1018.1 1018.0 0.0
12/05:00pm 24.6 19.9 11.9 45 7.2 ENE 28 35 15 19 1017.7 1017.6 0.0
12/04:30pm 26.1 21.5 11.1 39 8.5 ENE 26 37 14 20 1017.2 1017.1 0.0
12/04:00pm 26.4 21.6 11.7 40 8.4 ENE 28 37 15 20 1017.0 1016.9 0.0
12/03:30pm 27.5 22.9 11.1 36 9.3 ENE 26 32 14 17 1016.9 1016.8 0.0
12/03:00pm 27.4 22.6 8.8 31 10.2 ENE 24 33 13 18 1016.8 1016.7 0.0
12/02:30pm 28.0 23.9 8.8 30 10.5 ENE 20 35 11 19 1016.8 1016.7 0.0

Other Formats:

Comma delimited format used in spreadsheet applications
http://www.bom.gov.au/fwo/IDQ60801/IDQ60801.94568.axf

JavaScript Object Notation format (JSON) in row-major order
http://www.bom.gov.au/fwo/IDQ60801/IDQ60801.94568.json